Belmont, Texas
Current Conditions -  °F | °C
As of 12:15 AM on Saturday 29 Nov 2014 (Local Time) from KT20 Reporting Station
Clear Clear  
Wind Chill: 56°   Ceiling: Unl
Heat Index: 56°   Visibility: 10mi
Dew Point: 54°   Wind: 5mph
Humidity: 94%   Direction: 190°S
Pressure: 30.11"   Gusts: NA
Location:  29.52°N, 97.68°W
Report Text: KT20 290615Z AUTO 19004KT 10SM CLR 13/12 A3011 RMK AO2 T01330123
Loading
Personal Weather Stations






























Interactive Weather Map New forecast layout! Learn more

10-Day Weather Forecast

Advertisements
Track Severe Weather on mobile